Terminal Aerodrome Forecast
Issued by NWS

Home | Current Version | Previous Version | Graphics & Text | Print | Product List | Glossary On
Versions: 1 2 3 4 5 6 7 8 9 10 11 12 13 14 15 16 17 18 19 20 21 22 23 24 25 26 27
000
FTUS45 KGGW 282300
TAFGDV
TAF
KGDV 282320Z 0100/0124 29009KT P6SM SCT060
     FM010600 26008KT P6SM BKN035
     FM011800 32011KT P6SM BKN025
     FM012200 31010KT P6SM SCT250
      AMD LTD TO CLD VIS AND WIND=

USA.gov is the U.S. government's official web portal to all federal, state and local government web resources and services.